createdAt,value
2017-10-12T00:00:07.215Z,15.20
2017-10-12T00:02:34.713Z,15.20
2017-10-12T00:05:02.363Z,15.20
2017-10-12T00:07:29.925Z,15.20
2017-10-12T00:09:57.386Z,15.20
2017-10-12T00:12:24.870Z,15.20
2017-10-12T00:14:53.096Z,15.30
2017-10-12T00:17:20.553Z,15.20
2017-10-12T00:19:48.129Z,15.30
2017-10-12T00:22:15.589Z,15.20
2017-10-12T00:24:43.040Z,15.10
2017-10-12T00:27:10.501Z,15.10
2017-10-12T00:29:38.049Z,15.10
2017-10-12T00:32:05.523Z,15.20
2017-10-12T00:34:32.984Z,15.20
2017-10-12T00:37:00.440Z,15.20
2017-10-12T00:39:28.678Z,15.20
2017-10-12T00:41:56.137Z,15.20
2017-10-12T00:44:23.601Z,15.20
2017-10-12T00:46:51.061Z,15.20
2017-10-12T00:49:18.526Z,15.20
2017-10-12T00:51:45.999Z,15.20
2017-10-12T00:54:13.514Z,15.20
2017-10-12T00:56:40.961Z,15.20
2017-10-12T00:59:08.420Z,15.20
2017-10-12T01:01:35.894Z,15.20
2017-10-12T01:04:03.372Z,15.20
2017-10-12T01:06:30.832Z,15.10
2017-10-12T01:08:58.394Z,15.20
2017-10-12T01:11:25.879Z,15.10
2017-10-12T01:13:53.348Z,15.10
2017-10-12T01:16:20.870Z,15.10
2017-10-12T01:18:48.336Z,15.00
2017-10-12T01:21:16.562Z,15.10
2017-10-12T01:23:44.021Z,15.00
2017-10-12T01:26:11.497Z,15.00
2017-10-12T01:28:38.957Z,15.00
2017-10-12T01:31:06.426Z,15.00
2017-10-12T01:33:33.895Z,14.80
2017-10-12T01:36:02.165Z,14.80
2017-10-12T01:38:30.426Z,14.70
2017-10-12T01:40:57.992Z,14.70
2017-10-12T01:43:25.452Z,14.70
2017-10-12T01:45:53.690Z,14.70
2017-10-12T01:48:33.097Z,14.70
2017-10-12T01:51:00.552Z,14.70
2017-10-12T01:53:28.024Z,14.70
2017-10-12T01:55:55.578Z,14.70
2017-10-12T01:58:23.081Z,14.70
2017-10-12T02:00:50.646Z,14.70
2017-10-12T02:03:18.119Z,14.60
2017-10-12T02:05:46.341Z,14.50
2017-10-12T02:08:13.803Z,14.40
2017-10-12T02:10:41.281Z,14.50
2017-10-12T02:13:09.510Z,14.40
2017-10-12T02:15:36.972Z,14.40
2017-10-12T02:18:04.483Z,14.40
2017-10-12T02:20:32.025Z,14.50
2017-10-12T02:22:59.592Z,14.50
2017-10-12T02:25:27.062Z,14.50
2017-10-12T02:27:55.286Z,14.40
2017-10-12T02:30:22.797Z,14.40
2017-10-12T02:32:50.393Z,14.40
2017-10-12T02:35:17.942Z,14.40
2017-10-12T02:37:45.449Z,14.40
2017-10-12T02:40:12.934Z,14.30
2017-10-12T02:42:41.153Z,14.20
2017-10-12T02:45:08.699Z,14.10
2017-10-12T02:47:36.162Z,14.20
2017-10-12T02:50:03.624Z,14.20
2017-10-12T02:52:31.098Z,14.20
2017-10-12T02:54:58.572Z,14.20
2017-10-12T02:57:26.125Z,14.10
2017-10-12T02:59:53.685Z,14.20
2017-10-12T03:02:21.159Z,14.20
2017-10-12T03:04:48.645Z,14.20
2017-10-12T03:07:16.118Z,14.20
2017-10-12T03:09:43.582Z,14.20
2017-10-12T03:12:11.050Z,14.20
2017-10-12T03:14:38.526Z,14.20
2017-10-12T03:17:06.090Z,14.10
2017-10-12T03:19:33.649Z,14.10
2017-10-12T03:22:01.100Z,14.10
2017-10-12T03:24:28.616Z,14.20
2017-10-12T03:26:56.120Z,14.20
2017-10-12T03:29:23.672Z,14.20
2017-10-12T03:31:51.124Z,14.20
2017-10-12T03:34:18.691Z,14.20
2017-10-12T03:36:46.148Z,14.20
2017-10-12T03:39:13.711Z,14.10
2017-10-12T03:41:41.178Z,14.20
2017-10-12T03:44:09.413Z,14.10
2017-10-12T03:46:36.882Z,14.10
2017-10-12T03:49:04.355Z,14.20
2017-10-12T03:51:31.826Z,14.20
2017-10-12T03:54:00.052Z,14.20
2017-10-12T03:56:27.538Z,14.20
2017-10-12T03:58:54.992Z,14.30
2017-10-12T04:01:22.610Z,14.20
2017-10-12T04:03:50.105Z,14.30
2017-10-12T04:06:17.568Z,14.30
2017-10-12T04:08:45.130Z,14.30
2017-10-12T04:11:12.588Z,14.40
2017-10-12T04:13:40.045Z,14.40
2017-10-12T04:16:07.505Z,14.50
2017-10-12T04:18:35.061Z,14.50
2017-10-12T04:21:02.639Z,14.60
2017-10-12T04:23:30.086Z,14.60
2017-10-12T04:25:58.322Z,14.70
2017-10-12T04:28:25.785Z,14.60
2017-10-12T04:30:53.249Z,14.70
2017-10-12T04:33:20.934Z,14.80
2017-10-12T04:35:49.202Z,14.80
2017-10-12T04:38:16.730Z,14.80
2017-10-12T04:40:44.207Z,14.90
2017-10-12T04:43:11.682Z,14.90
2017-10-12T04:45:39.142Z,14.90
2017-10-12T04:48:07.391Z,14.90
2017-10-12T04:50:34.851Z,14.80
2017-10-12T04:53:02.337Z,14.90
2017-10-12T04:55:30.568Z,14.80
2017-10-12T04:57:58.041Z,14.80
2017-10-12T05:00:27.008Z,14.80
2017-10-12T05:02:54.490Z,14.70
2017-10-12T05:05:21.954Z,14.70
2017-10-12T05:07:49.430Z,14.80
2017-10-12T05:10:17.690Z,14.80
2017-10-12T05:12:45.173Z,14.70
2017-10-12T05:15:13.398Z,14.80
2017-10-12T05:17:40.871Z,14.70
2017-10-12T05:20:08.429Z,14.80
2017-10-12T05:22:37.401Z,14.70
2017-10-12T05:25:04.882Z,14.70
2017-10-12T05:27:32.340Z,14.70
2017-10-12T05:29:59.893Z,14.70
2017-10-12T05:32:27.378Z,14.70
2017-10-12T05:34:55.726Z,14.90
2017-10-12T05:37:23.180Z,14.80
2017-10-12T05:39:50.636Z,14.90
2017-10-12T05:42:18.209Z,14.80
2017-10-12T05:44:45.771Z,14.90
2017-10-12T05:47:13.320Z,14.90
2017-10-12T05:49:40.936Z,14.90
2017-10-12T05:52:08.418Z,15.00
2017-10-12T05:54:35.877Z,15.00
2017-10-12T05:57:03.344Z,15.00
2017-10-12T05:59:30.807Z,15.10
2017-10-12T06:01:58.285Z,15.10
2017-10-12T06:04:26.509Z,15.20
2017-10-12T06:06:53.973Z,15.10
2017-10-12T06:09:21.428Z,15.20
2017-10-12T06:11:48.910Z,15.10
2017-10-12T06:14:16.469Z,15.10
2017-10-12T06:16:43.929Z,15.10
2017-10-12T06:19:11.390Z,15.00
2017-10-12T06:21:39.709Z,15.00
2017-10-12T06:24:07.204Z,14.90
2017-10-12T06:26:34.780Z,14.90
2017-10-12T06:29:02.251Z,15.00
2017-10-12T06:31:30.473Z,15.10
2017-10-12T06:33:57.947Z,15.00
2017-10-12T06:36:25.405Z,15.10
2017-10-12T06:38:52.964Z,15.20
2017-10-12T06:41:20.525Z,15.30
2017-10-12T06:43:48.085Z,15.10
2017-10-12T06:46:15.606Z,15.10
2017-10-12T06:48:43.165Z,15.10
2017-10-12T06:51:10.689Z,15.10
2017-10-12T06:53:38.922Z,15.20
2017-10-12T06:56:06.397Z,15.20
2017-10-12T06:58:33.869Z,15.20
2017-10-12T07:01:02.108Z,15.10
2017-10-12T07:03:29.572Z,15.10
2017-10-12T07:05:57.048Z,15.10
2017-10-12T07:08:24.509Z,15.10
2017-10-12T07:10:52.745Z,15.00
2017-10-12T07:13:20.220Z,15.00
2017-10-12T07:15:47.710Z,15.10
2017-10-12T07:18:15.947Z,15.20
2017-10-12T07:20:43.476Z,15.10
2017-10-12T07:23:10.942Z,15.30
2017-10-12T07:25:38.433Z,15.20
2017-10-12T07:28:05.894Z,15.20
2017-10-12T07:30:33.363Z,15.10
2017-10-12T07:33:02.437Z,15.10
2017-10-12T07:35:29.926Z,15.00
2017-10-12T07:37:58.145Z,15.00
2017-10-12T07:40:25.601Z,15.00
2017-10-12T07:42:53.074Z,15.10
2017-10-12T07:45:20.532Z,15.10
2017-10-12T07:47:48.005Z,15.30
2017-10-12T07:50:15.465Z,15.40
2017-10-12T07:52:42.938Z,15.30
2017-10-12T07:55:11.244Z,15.10
2017-10-12T07:57:38.720Z,15.00
2017-10-12T08:00:06.203Z,15.10
2017-10-12T08:02:33.666Z,15.20
2017-10-12T08:05:01.213Z,15.30
2017-10-12T08:07:28.783Z,15.30
2017-10-12T08:09:56.249Z,15.30
2017-10-12T08:12:24.490Z,15.60
2017-10-12T08:14:51.945Z,15.60
2017-10-12T08:17:19.462Z,15.50
2017-10-12T08:19:46.921Z,15.50
2017-10-12T08:22:14.422Z,15.60
2017-10-12T08:24:42.004Z,15.70
2017-10-12T08:27:10.229Z,15.90
2017-10-12T08:29:38.197Z,15.90
2017-10-12T08:32:06.572Z,16.00
2017-10-12T08:34:34.035Z,16.00
2017-10-12T08:37:01.530Z,16.20
2017-10-12T08:39:29.006Z,16.40
2017-10-12T08:41:57.234Z,16.70
2017-10-12T08:44:24.782Z,16.70
2017-10-12T08:46:52.243Z,16.90
2017-10-12T08:49:19.715Z,16.90
2017-10-12T08:51:47.186Z,16.80
2017-10-12T08:54:14.667Z,16.60
2017-10-12T08:56:42.920Z,16.70
2017-10-12T08:59:10.481Z,16.60
2017-10-12T09:01:38.036Z,16.80
2017-10-12T09:04:05.502Z,16.60
2017-10-12T09:06:33.054Z,16.60
2017-10-12T09:09:00.612Z,16.70
2017-10-12T09:11:28.072Z,16.70
2017-10-12T09:13:56.298Z,17.00
2017-10-12T09:16:23.797Z,17.00
2017-10-12T09:18:52.881Z,16.80
2017-10-12T09:21:20.454Z,16.80
2017-10-12T09:23:48.683Z,16.90
2017-10-12T09:26:25.213Z,16.80
2017-10-12T09:28:53.441Z,16.70
2017-10-12T09:31:20.905Z,16.70
2017-10-12T09:33:48.384Z,16.80
2017-10-12T09:36:15.936Z,16.90
2017-10-12T09:38:44.909Z,16.90
2017-10-12T09:41:12.391Z,16.90
2017-10-12T09:43:39.852Z,17.20
2017-10-12T09:46:07.334Z,17.20
2017-10-12T09:48:35.569Z,16.90
2017-10-12T09:51:03.034Z,16.80
2017-10-12T09:53:30.512Z,16.80
2017-10-12T09:55:58.072Z,16.70
2017-10-12T09:58:26.387Z,16.50
2017-10-12T10:00:53.857Z,16.50
2017-10-12T10:03:21.329Z,16.30
2017-10-12T10:05:48.815Z,15.90
2017-10-12T10:08:17.066Z,15.40
2017-10-12T10:10:44.529Z,15.40
2017-10-12T10:13:12.097Z,15.40
2017-10-12T10:15:39.569Z,15.10
2017-10-12T10:18:07.835Z,15.20
2017-10-12T10:20:35.395Z,15.10
2017-10-12T10:23:02.861Z,15.10
2017-10-12T10:25:31.105Z,15.20
2017-10-12T10:27:58.564Z,15.20
2017-10-12T10:30:26.134Z,15.40
2017-10-12T10:32:53.606Z,15.50
2017-10-12T10:35:21.068Z,15.50
2017-10-12T10:37:49.294Z,15.80
2017-10-12T10:40:16.773Z,15.80
2017-10-12T10:42:44.257Z,16.10
2017-10-12T10:45:12.491Z,16.50
2017-10-12T10:47:40.070Z,16.40
2017-10-12T10:50:07.545Z,16.70
2017-10-12T10:52:35.824Z,16.90
2017-10-12T10:55:04.133Z,17.00
2017-10-12T10:57:31.596Z,16.90
2017-10-12T10:59:59.325Z,16.70
2017-10-12T11:02:27.566Z,16.50
2017-10-12T11:04:55.914Z,16.70
2017-10-12T11:07:23.402Z,16.70
2017-10-12T11:09:50.956Z,16.80
2017-10-12T11:12:18.458Z,17.00
2017-10-12T11:14:45.983Z,17.00
2017-10-12T11:17:13.500Z,16.90
2017-10-12T11:19:41.015Z,16.90
2017-10-12T11:22:09.264Z,16.80
2017-10-12T11:24:37.566Z,16.60
2017-10-12T11:27:05.785Z,16.70
2017-10-12T11:29:33.313Z,16.60
2017-10-12T11:32:01.541Z,19.30
2017-10-12T11:34:29.114Z,19.20
2017-10-12T11:36:57.448Z,21.40
2017-10-12T11:39:25.039Z,21.50
2017-10-12T11:41:52.772Z,21.90
2017-10-12T11:44:20.268Z,21.10
2017-10-12T11:46:47.837Z,20.80
2017-10-12T11:49:15.310Z,20.30
2017-10-12T11:51:43.570Z,19.60
2017-10-12T11:54:11.119Z,19.60
2017-10-12T11:56:39.406Z,18.60
2017-10-12T11:59:06.856Z,18.50
2017-10-12T12:01:34.313Z,18.30
2017-10-12T12:04:01.770Z,18.30
2017-10-12T12:06:30.024Z,18.40
2017-10-12T12:08:57.504Z,18.40
2017-10-12T12:11:25.724Z,18.00
2017-10-12T12:13:53.290Z,18.00
2017-10-12T12:16:20.803Z,17.50
2017-10-12T12:18:49.068Z,17.00
2017-10-12T12:21:18.038Z,17.20
2017-10-12T12:23:45.502Z,17.20
2017-10-12T12:26:12.974Z,17.30
2017-10-12T12:28:40.441Z,17.30
2017-10-12T12:31:08.675Z,17.60
2017-10-12T12:33:36.146Z,17.60
2017-10-12T12:36:03.626Z,17.60
2017-10-12T12:38:31.076Z,17.60
2017-10-12T12:40:59.391Z,17.20
2017-10-12T12:43:26.850Z,17.20
2017-10-12T12:45:54.325Z,17.20
2017-10-12T12:48:21.790Z,17.30
2017-10-12T12:50:49.270Z,17.30
2017-10-12T12:53:16.730Z,17.30
2017-10-12T12:55:44.195Z,17.20
2017-10-12T12:58:12.465Z,17.00
2017-10-12T13:00:40.235Z,16.90
2017-10-12T13:03:07.690Z,16.80
2017-10-12T13:05:35.954Z,16.90
2017-10-12T13:08:03.429Z,16.90
2017-10-12T13:10:31.688Z,16.90
2017-10-12T13:12:59.305Z,16.90
2017-10-12T13:15:26.782Z,16.90
2017-10-12T13:17:54.314Z,16.80
2017-10-12T13:20:21.781Z,16.70
2017-10-12T13:22:49.268Z,16.60
2017-10-12T13:25:16.739Z,16.70
2017-10-12T13:27:44.204Z,16.60
2017-10-12T13:30:12.460Z,16.70
2017-10-12T13:32:39.931Z,16.60
2017-10-12T13:35:07.393Z,16.70
2017-10-12T13:37:35.629Z,16.80
2017-10-12T13:40:03.111Z,16.80
2017-10-12T13:42:31.378Z,16.90
2017-10-12T13:44:58.856Z,16.80
2017-10-12T13:47:27.121Z,17.10
2017-10-12T13:49:55.354Z,17.30
2017-10-12T13:52:22.835Z,17.20
2017-10-12T13:54:50.305Z,17.30
2017-10-12T13:57:17.774Z,17.10
2017-10-12T13:59:45.321Z,17.00
2017-10-12T14:02:13.550Z,17.10
2017-10-12T14:04:41.035Z,17.00
2017-10-12T14:07:08.540Z,17.10
2017-10-12T14:09:36.009Z,17.10
2017-10-12T14:12:03.794Z,17.20
2017-10-12T14:14:32.163Z,17.00
2017-10-12T14:16:59.627Z,17.00
2017-10-12T14:19:27.098Z,17.00
2017-10-12T14:21:54.573Z,17.00
2017-10-12T14:24:22.042Z,17.10
2017-10-12T14:26:49.532Z,16.90
2017-10-12T14:29:17.010Z,16.80
2017-10-12T14:31:44.499Z,16.70
2017-10-12T14:34:13.490Z,17.00
2017-10-12T14:36:40.954Z,17.00
2017-10-12T14:39:09.210Z,16.90
2017-10-12T14:41:36.686Z,17.10
2017-10-12T14:44:04.159Z,17.10
2017-10-12T14:46:32.417Z,16.70
2017-10-12T14:48:59.927Z,16.60
2017-10-12T14:51:27.435Z,16.60
2017-10-12T14:53:54.914Z,16.50
2017-10-12T14:56:23.197Z,17.90
2017-10-12T14:58:50.676Z,17.90
2017-10-12T15:01:18.240Z,18.80
2017-10-12T15:03:45.711Z,18.80
2017-10-12T15:06:13.191Z,18.30
2017-10-12T15:08:40.664Z,18.10
2017-10-12T15:11:08.168Z,18.30
2017-10-12T15:13:35.633Z,18.60
2017-10-12T15:16:03.102Z,18.90
2017-10-12T15:18:30.598Z,18.90
2017-10-12T15:20:58.826Z,18.60
2017-10-12T15:23:26.309Z,18.60
2017-10-12T15:25:53.825Z,18.70
2017-10-12T15:28:21.320Z,18.80
2017-10-12T15:30:48.782Z,18.30
2017-10-12T15:33:16.335Z,18.00
2017-10-12T15:35:43.847Z,17.50
2017-10-12T15:38:11.307Z,17.00
2017-10-12T15:40:38.780Z,16.80
2017-10-12T15:43:06.262Z,16.60
2017-10-12T15:45:33.842Z,16.50
2017-10-12T15:48:02.079Z,16.00
2017-10-12T15:50:29.570Z,16.00
2017-10-12T15:52:57.035Z,15.80
2017-10-12T15:55:25.302Z,15.50
2017-10-12T15:57:52.761Z,15.50
2017-10-12T16:00:21.028Z,15.40
2017-10-12T16:02:48.596Z,15.40
2017-10-12T16:05:16.150Z,15.40
2017-10-12T16:07:43.610Z,15.40
2017-10-12T16:10:11.838Z,15.30
2017-10-12T16:12:39.387Z,15.20
2017-10-12T16:15:06.850Z,15.10
2017-10-12T16:17:34.339Z,15.10
2017-10-12T16:20:01.926Z,15.00
2017-10-12T16:24:57.763Z,14.80
2017-10-12T16:27:25.993Z,14.70
2017-10-12T16:29:53.477Z,14.70
2017-10-12T16:32:21.718Z,14.80
2017-10-12T16:34:49.258Z,14.70
2017-10-12T16:37:16.745Z,14.70
2017-10-12T16:39:44.205Z,14.70
2017-10-12T16:42:11.679Z,14.70
2017-10-12T16:44:39.162Z,14.60
2017-10-12T16:47:07.429Z,14.60
2017-10-12T16:49:35.689Z,14.50
2017-10-12T16:52:03.249Z,14.50
2017-10-12T16:54:30.776Z,14.50
2017-10-12T16:56:58.277Z,14.50
2017-10-12T16:59:26.519Z,14.40
2017-10-12T17:01:54.054Z,14.40
2017-10-12T17:04:21.560Z,14.40
2017-10-12T17:06:49.826Z,14.40
2017-10-12T17:09:17.383Z,14.30
2017-10-12T17:11:44.885Z,14.40
2017-10-12T17:14:12.349Z,14.40
2017-10-12T17:16:39.854Z,14.30
2017-10-12T17:19:07.322Z,14.30
2017-10-12T17:21:35.561Z,14.30
2017-10-12T17:24:03.033Z,14.20
2017-10-12T17:26:30.595Z,14.20
2017-10-12T17:28:58.167Z,14.20
2017-10-12T17:31:25.877Z,14.20
2017-10-12T17:33:53.383Z,14.10
2017-10-12T17:36:20.847Z,14.10
2017-10-12T17:41:16.582Z,14.00
2017-10-12T17:43:44.899Z,14.10
2017-10-12T17:46:12.366Z,14.00
2017-10-12T17:48:39.849Z,14.00
2017-10-12T17:51:07.455Z,14.00
2017-10-12T17:53:34.976Z,14.00
2017-10-12T17:56:02.441Z,14.00
2017-10-12T17:58:30.696Z,13.90
2017-10-12T18:00:58.202Z,13.90
2017-10-12T18:03:25.748Z,14.00
2017-10-12T18:05:54.001Z,14.10
2017-10-12T18:08:21.462Z,14.00
2017-10-12T18:10:49.014Z,14.10
2017-10-12T18:13:16.479Z,14.10
2017-10-12T18:15:44.038Z,14.10
2017-10-12T18:18:11.590Z,14.00
2017-10-12T18:20:39.061Z,14.00
2017-10-12T18:23:07.305Z,13.90
2017-10-12T18:25:34.776Z,13.80
2017-10-12T18:28:02.241Z,14.00
2017-10-12T18:30:29.710Z,13.80
2017-10-12T18:32:57.941Z,13.80
2017-10-12T18:35:25.453Z,13.70
2017-10-12T18:37:52.929Z,13.70
2017-10-12T18:40:20.420Z,13.70
2017-10-12T18:42:48.774Z,13.70
2017-10-12T18:45:16.238Z,13.60
2017-10-12T18:47:43.802Z,13.70
2017-10-12T18:50:11.276Z,13.60
2017-10-12T18:52:38.836Z,13.70
2017-10-12T18:55:06.299Z,13.60
2017-10-12T18:57:33.788Z,13.60
2017-10-12T19:00:01.255Z,13.60
2017-10-12T19:02:28.724Z,13.60
2017-10-12T19:04:56.206Z,13.60
2017-10-12T19:07:23.685Z,13.60
2017-10-12T19:09:51.162Z,13.50
2017-10-12T19:12:19.418Z,13.50
2017-10-12T19:14:46.885Z,13.50
2017-10-12T19:17:14.488Z,13.50
2017-10-12T19:19:41.956Z,13.50
2017-10-12T19:22:09.425Z,13.60
2017-10-12T19:24:36.922Z,13.50
2017-10-12T19:27:05.153Z,13.50
2017-10-12T19:29:32.628Z,13.50
2017-10-12T19:32:00.085Z,13.50
2017-10-12T19:34:27.570Z,13.50
2017-10-12T19:36:55.818Z,13.50
2017-10-12T19:39:23.295Z,13.40
2017-10-12T19:41:51.525Z,13.50
2017-10-12T19:44:19.003Z,13.40
2017-10-12T19:46:46.466Z,13.40
2017-10-12T19:49:13.936Z,13.40
2017-10-12T19:51:42.211Z,13.40
2017-10-12T19:54:09.766Z,13.40
2017-10-12T19:56:38.029Z,13.30
2017-10-12T19:59:05.543Z,13.30
2017-10-12T20:01:33.047Z,13.40
2017-10-12T20:04:00.527Z,13.40
2017-10-12T20:06:29.129Z,13.30
2017-10-12T20:09:00.532Z,13.20
2017-10-12T20:11:28.067Z,13.20
2017-10-12T20:14:25.372Z,13.20
2017-10-12T20:16:23.627Z,13.20
2017-10-12T20:18:51.311Z,13.20
2017-10-12T20:23:47.191Z,13.10
2017-10-12T20:26:14.686Z,13.10
2017-10-12T20:28:42.567Z,13.10
2017-10-12T20:31:10.794Z,13.10
2017-10-12T20:33:38.541Z,13.00
2017-10-12T20:36:06.917Z,13.10
2017-10-12T20:38:34.426Z,13.00
2017-10-12T20:41:02.085Z,13.00
2017-10-12T20:43:30.353Z,12.90
2017-10-12T20:45:57.830Z,12.90
2017-10-12T20:48:26.068Z,12.90
2017-10-12T20:50:53.548Z,12.90
2017-10-12T20:53:21.038Z,12.90
2017-10-12T20:55:48.512Z,13.00
2017-10-12T20:58:15.986Z,13.00
2017-10-12T21:00:43.478Z,12.90
2017-10-12T21:03:10.978Z,12.90
2017-10-12T21:05:38.461Z,12.90
2017-10-12T21:08:05.930Z,12.90
2017-10-12T21:10:33.515Z,12.90
2017-10-12T21:13:01.772Z,12.90
2017-10-12T21:15:29.385Z,12.80
2017-10-12T21:17:56.859Z,12.90
2017-10-12T21:20:24.345Z,12.90
2017-10-12T21:22:51.947Z,12.90
2017-10-12T21:25:19.419Z,12.80
2017-10-12T21:27:46.926Z,12.80
2017-10-12T21:30:14.486Z,12.90
2017-10-12T21:32:41.952Z,12.80
2017-10-12T21:35:10.197Z,12.70
2017-10-12T21:37:37.660Z,12.70
2017-10-12T21:40:05.131Z,12.70
2017-10-12T21:42:32.604Z,12.70
2017-10-12T21:45:00.857Z,12.70
2017-10-12T21:47:28.452Z,12.60
2017-10-12T21:49:56.046Z,12.70
2017-10-12T21:52:23.550Z,12.70
2017-10-12T21:54:51.811Z,12.70
2017-10-12T21:57:19.310Z,12.60
2017-10-12T21:59:46.797Z,12.60
2017-10-12T22:02:14.299Z,12.70
2017-10-12T22:04:42.723Z,12.80
2017-10-12T22:07:11.062Z,12.70
2017-10-12T22:09:39.329Z,12.70
2017-10-12T22:12:07.589Z,12.70
2017-10-12T22:14:35.184Z,12.60
2017-10-12T22:17:02.673Z,12.70
2017-10-12T22:19:30.193Z,12.60
2017-10-12T22:21:58.473Z,12.60
2017-10-12T22:24:25.969Z,12.60
2017-10-12T22:26:53.485Z,12.60
2017-10-12T22:29:21.741Z,12.60
2017-10-12T22:31:50.000Z,12.50
2017-10-12T22:34:17.490Z,12.50
2017-10-12T22:36:45.766Z,12.50
2017-10-12T22:39:14.033Z,12.40
2017-10-12T22:41:42.292Z,12.40
2017-10-12T22:44:09.801Z,12.40
2017-10-12T22:46:37.297Z,12.50
2017-10-12T22:49:04.799Z,12.50
2017-10-12T22:51:32.290Z,12.50
2017-10-12T22:53:59.818Z,12.50
2017-10-12T22:56:27.318Z,12.50
2017-10-12T22:58:54.830Z,12.40
2017-10-12T23:01:22.314Z,12.40
2017-10-12T23:03:49.853Z,12.50
2017-10-12T23:06:17.350Z,12.40
2017-10-12T23:08:44.942Z,12.40
2017-10-12T23:11:13.225Z,12.40
2017-10-12T23:13:41.498Z,12.30
2017-10-12T23:16:09.756Z,12.40
2017-10-12T23:18:37.241Z,12.30
2017-10-12T23:21:05.509Z,12.30
2017-10-12T23:23:33.768Z,12.20
2017-10-12T23:26:01.271Z,12.20
2017-10-12T23:28:28.801Z,12.20
2017-10-12T23:30:57.290Z,12.20
2017-10-12T23:33:25.547Z,12.20
2017-10-12T23:35:53.835Z,12.20
2017-10-12T23:38:22.143Z,12.20
2017-10-12T23:40:49.637Z,12.10
2017-10-12T23:43:17.131Z,12.10
2017-10-12T23:45:45.406Z,12.10
2017-10-12T23:48:13.680Z,12.00
2017-10-12T23:50:41.960Z,12.00
2017-10-12T23:53:09.520Z,11.90
2017-10-12T23:55:37.079Z,11.90
2017-10-12T23:58:04.571Z,11.90
